Main page
Satellite images Climate Cyclones Lightning AirportsFAQ Languages Contact Newsletter About
Weather : Europe Africa North America South America Asia Australia-Oceania Others

hong-kong-cn, Hong Kong, Hong Kong International Airport

45004

latitude: , longitude: China, elevation: 22-19N m


METAR: VHHH 240530Z 16014KT 120V180 9999 FEW025 SCT035 33/23 Q1009 NOSIG